sensor_id;sensor_type;location;lat;lon;timestamp;P1;durP1;ratioP1;P2;durP2;ratioP2
5458;SDS011;2752;49.992;8.422;2023-11-19T00:02:18;8.37;;;4.07;;
5458;SDS011;2752;49.992;8.422;2023-11-19T00:04:45;4.80;;;3.30;;
5458;SDS011;2752;49.992;8.422;2023-11-19T00:07:12;9.73;;;4.47;;
5458;SDS011;2752;49.992;8.422;2023-11-19T00:09:40;8.27;;;4.00;;
5458;SDS011;2752;49.992;8.422;2023-11-19T00:12:08;11.90;;;4.53;;
5458;SDS011;2752;49.992;8.422;2023-11-19T00:14:37;7.90;;;3.50;;
5458;SDS011;2752;49.992;8.422;2023-11-19T00:17:04;7.67;;;4.20;;
5458;SDS011;2752;49.992;8.422;2023-11-19T00:19:31;6.27;;;3.77;;
5458;SDS011;2752;49.992;8.422;2023-11-19T00:21:58;8.70;;;3.90;;
5458;SDS011;2752;49.992;8.422;2023-11-19T00:24:27;4.37;;;3.30;;
5458;SDS011;2752;49.992;8.422;2023-11-19T00:26:55;8.10;;;4.07;;
5458;SDS011;2752;49.992;8.422;2023-11-19T00:29:22;7.70;;;3.87;;
5458;SDS011;2752;49.992;8.422;2023-11-19T00:31:51;8.20;;;3.57;;
5458;SDS011;2752;49.992;8.422;2023-11-19T00:34:18;10.80;;;4.30;;
5458;SDS011;2752;49.992;8.422;2023-11-19T00:36:47;6.10;;;3.97;;
5458;SDS011;2752;49.992;8.422;2023-11-19T00:39:14;9.43;;;5.00;;
5458;SDS011;2752;49.992;8.422;2023-11-19T00:41:42;8.17;;;5.50;;
5458;SDS011;2752;49.992;8.422;2023-11-19T00:44:11;10.20;;;5.67;;
5458;SDS011;2752;49.992;8.422;2023-11-19T00:46:38;11.60;;;5.70;;
5458;SDS011;2752;49.992;8.422;2023-11-19T00:49:06;9.10;;;5.67;;
5458;SDS011;2752;49.992;8.422;2023-11-19T00:51:33;12.27;;;5.67;;
5458;SDS011;2752;49.992;8.422;2023-11-19T00:54:00;12.50;;;5.80;;
5458;SDS011;2752;49.992;8.422;2023-11-19T00:56:27;11.03;;;5.87;;
5458;SDS011;2752;49.992;8.422;2023-11-19T00:58:54;13.60;;;6.03;;
5458;SDS011;2752;49.992;8.422;2023-11-19T01:01:21;8.40;;;5.60;;
5458;SDS011;2752;49.992;8.422;2023-11-19T01:03:49;14.03;;;6.50;;
5458;SDS011;2752;49.992;8.422;2023-11-19T01:06:27;10.90;;;5.03;;
5458;SDS011;2752;49.992;8.422;2023-11-19T01:08:54;10.60;;;5.97;;
5458;SDS011;2752;49.992;8.422;2023-11-19T01:11:22;11.93;;;5.90;;
5458;SDS011;2752;49.992;8.422;2023-11-19T01:13:49;11.73;;;5.07;;
5458;SDS011;2752;49.992;8.422;2023-11-19T01:16:16;10.20;;;5.77;;
5458;SDS011;2752;49.992;8.422;2023-11-19T01:18:43;12.13;;;5.43;;
5458;SDS011;2752;49.992;8.422;2023-11-19T01:21:10;9.70;;;4.97;;
5458;SDS011;2752;49.992;8.422;2023-11-19T01:23:41;6.60;;;4.90;;
5458;SDS011;2752;49.992;8.422;2023-11-19T01:26:10;6.90;;;4.80;;
5458;SDS011;2752;49.992;8.422;2023-11-19T01:28:37;10.90;;;5.93;;
5458;SDS011;2752;49.992;8.422;2023-11-19T01:31:08;11.40;;;5.90;;
5458;SDS011;2752;49.992;8.422;2023-11-19T01:33:35;9.43;;;5.57;;
5458;SDS011;2752;49.992;8.422;2023-11-19T01:36:03;8.93;;;5.10;;
5458;SDS011;2752;49.992;8.422;2023-11-19T01:38:30;7.10;;;4.20;;
5458;SDS011;2752;49.992;8.422;2023-11-19T01:40:58;8.80;;;5.53;;
5458;SDS011;2752;49.992;8.422;2023-11-19T01:43:32;12.63;;;5.47;;
5458;SDS011;2752;49.992;8.422;2023-11-19T01:45:59;11.53;;;5.60;;
5458;SDS011;2752;49.992;8.422;2023-11-19T01:48:26;8.60;;;5.10;;
5458;SDS011;2752;49.992;8.422;2023-11-19T01:50:53;10.73;;;5.53;;
5458;SDS011;2752;49.992;8.422;2023-11-19T01:53:20;8.53;;;4.70;;
5458;SDS011;2752;49.992;8.422;2023-11-19T01:55:47;14.23;;;5.97;;
5458;SDS011;2752;49.992;8.422;2023-11-19T01:58:16;12.73;;;5.63;;
5458;SDS011;2752;49.992;8.422;2023-11-19T02:00:44;9.90;;;5.23;;
5458;SDS011;2752;49.992;8.422;2023-11-19T02:03:11;8.93;;;4.70;;
5458;SDS011;2752;49.992;8.422;2023-11-19T02:05:38;7.50;;;4.53;;
5458;SDS011;2752;49.992;8.422;2023-11-19T02:08:05;13.23;;;5.50;;
5458;SDS011;2752;49.992;8.422;2023-11-19T02:10:33;7.03;;;4.70;;
5458;SDS011;2752;49.992;8.422;2023-11-19T02:13:00;7.63;;;5.20;;
5458;SDS011;2752;49.992;8.422;2023-11-19T02:15:31;7.47;;;3.73;;
5458;SDS011;2752;49.992;8.422;2023-11-19T02:20:40;8.43;;;5.60;;
5458;SDS011;2752;49.992;8.422;2023-11-19T02:23:07;8.37;;;4.53;;
5458;SDS011;2752;49.992;8.422;2023-11-19T02:25:34;7.00;;;4.90;;
5458;SDS011;2752;49.992;8.422;2023-11-19T02:28:03;7.90;;;4.73;;
5458;SDS011;2752;49.992;8.422;2023-11-19T02:30:31;9.30;;;4.67;;
5458;SDS011;2752;49.992;8.422;2023-11-19T02:32:58;7.53;;;4.37;;
5458;SDS011;2752;49.992;8.422;2023-11-19T02:35:30;7.80;;;4.00;;
5458;SDS011;2752;49.992;8.422;2023-11-19T02:37:57;12.93;;;5.20;;
5458;SDS011;2752;49.992;8.422;2023-11-19T02:40:25;6.43;;;3.63;;
5458;SDS011;2752;49.992;8.422;2023-11-19T02:42:52;8.27;;;3.60;;
5458;SDS011;2752;49.992;8.422;2023-11-19T02:45:21;6.70;;;3.53;;
5458;SDS011;2752;49.992;8.422;2023-11-19T02:47:49;7.70;;;4.10;;
5458;SDS011;2752;49.992;8.422;2023-11-19T02:50:17;7.40;;;4.53;;
5458;SDS011;2752;49.992;8.422;2023-11-19T02:52:50;6.33;;;4.27;;
5458;SDS011;2752;49.992;8.422;2023-11-19T02:55:17;7.37;;;4.33;;
5458;SDS011;2752;49.992;8.422;2023-11-19T02:57:44;5.87;;;4.33;;
5458;SDS011;2752;49.992;8.422;2023-11-19T03:00:13;4.47;;;3.60;;
5458;SDS011;2752;49.992;8.422;2023-11-19T03:02:42;7.73;;;3.73;;
5458;SDS011;2752;49.992;8.422;2023-11-19T03:05:11;6.03;;;3.30;;
5458;SDS011;2752;49.992;8.422;2023-11-19T03:07:39;5.27;;;3.60;;
5458;SDS011;2752;49.992;8.422;2023-11-19T03:10:07;5.67;;;3.70;;
5458;SDS011;2752;49.992;8.422;2023-11-19T03:12:37;4.60;;;3.73;;
5458;SDS011;2752;49.992;8.422;2023-11-19T03:15:05;5.70;;;3.10;;
5458;SDS011;2752;49.992;8.422;2023-11-19T03:17:32;7.70;;;3.20;;
5458;SDS011;2752;49.992;8.422;2023-11-19T03:20:01;4.53;;;3.50;;
5458;SDS011;2752;49.992;8.422;2023-11-19T03:22:28;8.13;;;3.83;;
5458;SDS011;2752;49.992;8.422;2023-11-19T03:24:55;7.57;;;3.80;;
5458;SDS011;2752;49.992;8.422;2023-11-19T03:27:22;6.70;;;4.10;;
5458;SDS011;2752;49.992;8.422;2023-11-19T03:29:49;6.60;;;3.83;;
5458;SDS011;2752;49.992;8.422;2023-11-19T03:32:16;4.93;;;3.00;;
5458;SDS011;2752;49.992;8.422;2023-11-19T03:34:43;5.73;;;3.70;;
5458;SDS011;2752;49.992;8.422;2023-11-19T03:37:11;5.30;;;3.63;;
5458;SDS011;2752;49.992;8.422;2023-11-19T03:39:41;7.00;;;3.87;;
5458;SDS011;2752;49.992;8.422;2023-11-19T03:42:08;5.80;;;4.03;;
5458;SDS011;2752;49.992;8.422;2023-11-19T03:44:36;3.40;;;2.73;;
5458;SDS011;2752;49.992;8.422;2023-11-19T03:47:03;8.00;;;3.27;;
5458;SDS011;2752;49.992;8.422;2023-11-19T03:49:31;5.00;;;3.40;;
5458;SDS011;2752;49.992;8.422;2023-11-19T03:51:58;5.90;;;2.80;;
5458;SDS011;2752;49.992;8.422;2023-11-19T03:54:27;8.00;;;3.10;;
5458;SDS011;2752;49.992;8.422;2023-11-19T03:56:54;3.00;;;2.10;;
5458;SDS011;2752;49.992;8.422;2023-11-19T03:59:21;4.27;;;3.40;;
5458;SDS011;2752;49.992;8.422;2023-11-19T04:01:57;3.70;;;2.50;;
5458;SDS011;2752;49.992;8.422;2023-11-19T04:04:25;3.60;;;2.70;;
5458;SDS011;2752;49.992;8.422;2023-11-19T04:06:53;4.80;;;2.80;;
5458;SDS011;2752;49.992;8.422;2023-11-19T04:09:20;3.33;;;2.43;;
5458;SDS011;2752;49.992;8.422;2023-11-19T04:11:47;3.53;;;2.30;;
5458;SDS011;2752;49.992;8.422;2023-11-19T04:14:14;3.83;;;2.70;;
5458;SDS011;2752;49.992;8.422;2023-11-19T04:16:43;3.83;;;2.40;;
5458;SDS011;2752;49.992;8.422;2023-11-19T04:19:11;3.77;;;2.40;;
5458;SDS011;2752;49.992;8.422;2023-11-19T04:21:39;4.43;;;2.60;;
5458;SDS011;2752;49.992;8.422;2023-11-19T04:24:07;3.47;;;2.73;;
5458;SDS011;2752;49.992;8.422;2023-11-19T04:26:39;5.90;;;2.50;;
5458;SDS011;2752;49.992;8.422;2023-11-19T04:29:06;4.50;;;2.53;;
5458;SDS011;2752;49.992;8.422;2023-11-19T04:31:33;3.70;;;2.30;;
5458;SDS011;2752;49.992;8.422;2023-11-19T04:34:00;3.97;;;2.40;;
5458;SDS011;2752;49.992;8.422;2023-11-19T04:36:29;3.33;;;2.27;;
5458;SDS011;2752;49.992;8.422;2023-11-19T04:38:56;3.73;;;2.30;;
5458;SDS011;2752;49.992;8.422;2023-11-19T04:41:24;6.10;;;2.30;;
5458;SDS011;2752;49.992;8.422;2023-11-19T04:43:52;8.17;;;2.90;;
5458;SDS011;2752;49.992;8.422;2023-11-19T04:46:19;4.17;;;2.90;;
5458;SDS011;2752;49.992;8.422;2023-11-19T04:48:46;3.83;;;2.47;;
5458;SDS011;2752;49.992;8.422;2023-11-19T04:51:13;5.27;;;1.80;;
5458;SDS011;2752;49.992;8.422;2023-11-19T04:53:41;6.50;;;2.07;;
5458;SDS011;2752;49.992;8.422;2023-11-19T04:56:09;3.30;;;2.10;;
5458;SDS011;2752;49.992;8.422;2023-11-19T04:58:36;2.67;;;1.87;;
5458;SDS011;2752;49.992;8.422;2023-11-19T05:01:03;7.37;;;2.60;;
5458;SDS011;2752;49.992;8.422;2023-11-19T05:03:30;3.30;;;2.30;;
5458;SDS011;2752;49.992;8.422;2023-11-19T05:05:57;5.00;;;3.00;;
5458;SDS011;2752;49.992;8.422;2023-11-19T05:08:24;5.60;;;1.90;;
5458;SDS011;2752;49.992;8.422;2023-11-19T05:10:52;17.13;;;2.40;;
5458;SDS011;2752;49.992;8.422;2023-11-19T05:13:19;1.80;;;1.60;;
5458;SDS011;2752;49.992;8.422;2023-11-19T05:15:47;1.57;;;1.40;;
5458;SDS011;2752;49.992;8.422;2023-11-19T05:18:14;3.40;;;1.20;;
5458;SDS011;2752;49.992;8.422;2023-11-19T05:20:41;2.03;;;1.60;;
5458;SDS011;2752;49.992;8.422;2023-11-19T05:23:08;1.63;;;1.20;;
5458;SDS011;2752;49.992;8.422;2023-11-19T05:25:36;2.70;;;2.07;;
5458;SDS011;2752;49.992;8.422;2023-11-19T05:28:04;2.93;;;1.80;;
5458;SDS011;2752;49.992;8.422;2023-11-19T05:30:31;2.33;;;1.60;;
5458;SDS011;2752;49.992;8.422;2023-11-19T05:32:58;3.20;;;1.90;;
5458;SDS011;2752;49.992;8.422;2023-11-19T05:35:26;1.73;;;1.50;;
5458;SDS011;2752;49.992;8.422;2023-11-19T05:37:53;1.73;;;1.30;;
5458;SDS011;2752;49.992;8.422;2023-11-19T05:40:21;2.60;;;1.37;;
5458;SDS011;2752;49.992;8.422;2023-11-19T05:42:48;2.13;;;1.53;;
5458;SDS011;2752;49.992;8.422;2023-11-19T05:45:16;1.47;;;1.27;;
5458;SDS011;2752;49.992;8.422;2023-11-19T05:47:43;1.77;;;1.33;;
5458;SDS011;2752;49.992;8.422;2023-11-19T05:50:10;1.40;;;1.30;;
5458;SDS011;2752;49.992;8.422;2023-11-19T05:52:37;1.87;;;1.20;;
5458;SDS011;2752;49.992;8.422;2023-11-19T05:55:04;1.37;;;1.27;;
5458;SDS011;2752;49.992;8.422;2023-11-19T05:57:34;5.13;;;1.13;;
5458;SDS011;2752;49.992;8.422;2023-11-19T06:00:01;7.27;;;1.30;;
5458;SDS011;2752;49.992;8.422;2023-11-19T06:02:33;3.70;;;1.27;;
5458;SDS011;2752;49.992;8.422;2023-11-19T06:05:02;1.27;;;0.90;;
5458;SDS011;2752;49.992;8.422;2023-11-19T06:07:30;2.30;;;1.23;;
5458;SDS011;2752;49.992;8.422;2023-11-19T06:09:57;1.43;;;1.13;;
5458;SDS011;2752;49.992;8.422;2023-11-19T06:12:24;1.83;;;0.93;;
5458;SDS011;2752;49.992;8.422;2023-11-19T06:14:52;1.23;;;1.00;;
5458;SDS011;2752;49.992;8.422;2023-11-19T06:17:19;2.10;;;1.20;;
5458;SDS011;2752;49.992;8.422;2023-11-19T06:19:48;5.33;;;1.10;;
5458;SDS011;2752;49.992;8.422;2023-11-19T06:22:15;1.27;;;0.93;;
5458;SDS011;2752;49.992;8.422;2023-11-19T06:24:42;1.67;;;0.97;;
5458;SDS011;2752;49.992;8.422;2023-11-19T06:27:09;2.87;;;1.50;;
5458;SDS011;2752;49.992;8.422;2023-11-19T06:29:36;1.97;;;1.20;;
5458;SDS011;2752;49.992;8.422;2023-11-19T06:32:05;1.23;;;1.00;;
5458;SDS011;2752;49.992;8.422;2023-11-19T06:34:33;1.27;;;1.10;;
5458;SDS011;2752;49.992;8.422;2023-11-19T06:37:01;1.63;;;1.30;;
5458;SDS011;2752;49.992;8.422;2023-11-19T06:39:29;2.80;;;1.60;;
5458;SDS011;2752;49.992;8.422;2023-11-19T06:41:56;2.00;;;1.50;;
5458;SDS011;2752;49.992;8.422;2023-11-19T06:44:23;2.97;;;1.80;;
5458;SDS011;2752;49.992;8.422;2023-11-19T06:46:50;4.10;;;1.70;;
5458;SDS011;2752;49.992;8.422;2023-11-19T06:49:18;5.63;;;1.70;;
5458;SDS011;2752;49.992;8.422;2023-11-19T06:51:45;2.13;;;1.70;;
5458;SDS011;2752;49.992;8.422;2023-11-19T06:54:13;1.90;;;1.23;;
5458;SDS011;2752;49.992;8.422;2023-11-19T06:56:41;3.03;;;1.43;;
5458;SDS011;2752;49.992;8.422;2023-11-19T06:59:08;1.80;;;1.30;;
5458;SDS011;2752;49.992;8.422;2023-11-19T07:01:36;1.40;;;1.30;;
5458;SDS011;2752;49.992;8.422;2023-11-19T07:04:03;1.53;;;1.13;;
5458;SDS011;2752;49.992;8.422;2023-11-19T07:06:34;2.37;;;1.47;;
5458;SDS011;2752;49.992;8.422;2023-11-19T07:09:01;2.60;;;1.50;;
5458;SDS011;2752;49.992;8.422;2023-11-19T07:11:35;1.77;;;1.40;;
5458;SDS011;2752;49.992;8.422;2023-11-19T07:14:03;4.50;;;1.73;;
5458;SDS011;2752;49.992;8.422;2023-11-19T07:16:31;4.03;;;1.70;;
5458;SDS011;2752;49.992;8.422;2023-11-19T07:18:59;4.83;;;2.13;;
5458;SDS011;2752;49.992;8.422;2023-11-19T07:21:26;2.97;;;1.67;;
5458;SDS011;2752;49.992;8.422;2023-11-19T07:23:53;2.70;;;1.77;;
5458;SDS011;2752;49.992;8.422;2023-11-19T07:26:21;2.37;;;1.73;;
5458;SDS011;2752;49.992;8.422;2023-11-19T07:28:49;6.33;;;2.97;;
5458;SDS011;2752;49.992;8.422;2023-11-19T07:31:16;5.03;;;2.60;;
5458;SDS011;2752;49.992;8.422;2023-11-19T07:33:44;6.13;;;3.47;;
5458;SDS011;2752;49.992;8.422;2023-11-19T07:36:12;7.43;;;3.70;;
5458;SDS011;2752;49.992;8.422;2023-11-19T07:38:39;4.17;;;2.90;;
5458;SDS011;2752;49.992;8.422;2023-11-19T07:41:06;6.17;;;3.77;;
5458;SDS011;2752;49.992;8.422;2023-11-19T07:43:34;2.67;;;1.97;;
5458;SDS011;2752;49.992;8.422;2023-11-19T07:46:03;3.60;;;2.70;;
5458;SDS011;2752;49.992;8.422;2023-11-19T07:48:32;3.63;;;2.30;;
5458;SDS011;2752;49.992;8.422;2023-11-19T07:51:00;3.27;;;2.30;;
5458;SDS011;2752;49.992;8.422;2023-11-19T07:53:27;2.83;;;2.03;;
5458;SDS011;2752;49.992;8.422;2023-11-19T07:55:54;2.87;;;2.00;;
5458;SDS011;2752;49.992;8.422;2023-11-19T07:58:21;2.33;;;2.00;;
5458;SDS011;2752;49.992;8.422;2023-11-19T08:00:48;2.80;;;2.17;;
5458;SDS011;2752;49.992;8.422;2023-11-19T08:03:16;2.43;;;1.97;;
5458;SDS011;2752;49.992;8.422;2023-11-19T08:05:44;4.17;;;2.60;;
5458;SDS011;2752;49.992;8.422;2023-11-19T08:08:11;7.63;;;2.53;;
5458;SDS011;2752;49.992;8.422;2023-11-19T08:10:38;2.13;;;1.77;;
5458;SDS011;2752;49.992;8.422;2023-11-19T08:13:05;4.87;;;2.57;;
5458;SDS011;2752;49.992;8.422;2023-11-19T08:15:33;3.33;;;2.20;;
5458;SDS011;2752;49.992;8.422;2023-11-19T08:18:00;3.30;;;2.20;;
5458;SDS011;2752;49.992;8.422;2023-11-19T08:20:28;2.60;;;2.10;;
5458;SDS011;2752;49.992;8.422;2023-11-19T08:22:55;2.80;;;2.00;;
5458;SDS011;2752;49.992;8.422;2023-11-19T08:25:22;6.90;;;2.00;;
5458;SDS011;2752;49.992;8.422;2023-11-19T08:27:49;2.00;;;1.63;;
5458;SDS011;2752;49.992;8.422;2023-11-19T08:30:17;4.20;;;2.10;;
5458;SDS011;2752;49.992;8.422;2023-11-19T08:32:44;2.20;;;2.00;;
5458;SDS011;2752;49.992;8.422;2023-11-19T08:35:11;4.83;;;2.00;;
5458;SDS011;2752;49.992;8.422;2023-11-19T08:37:40;2.30;;;1.90;;
5458;SDS011;2752;49.992;8.422;2023-11-19T08:40:07;3.03;;;2.00;;
5458;SDS011;2752;49.992;8.422;2023-11-19T08:42:35;1.87;;;1.67;;
5458;SDS011;2752;49.992;8.422;2023-11-19T08:45:04;2.60;;;1.97;;
5458;SDS011;2752;49.992;8.422;2023-11-19T08:47:31;4.37;;;2.33;;
5458;SDS011;2752;49.992;8.422;2023-11-19T08:49:58;3.27;;;2.30;;
5458;SDS011;2752;49.992;8.422;2023-11-19T08:52:25;6.13;;;2.50;;
5458;SDS011;2752;49.992;8.422;2023-11-19T08:54:53;3.97;;;2.30;;
5458;SDS011;2752;49.992;8.422;2023-11-19T08:57:21;2.63;;;1.90;;
5458;SDS011;2752;49.992;8.422;2023-11-19T08:59:48;4.00;;;2.23;;
5458;SDS011;2752;49.992;8.422;2023-11-19T09:02:15;4.30;;;2.10;;
5458;SDS011;2752;49.992;8.422;2023-11-19T09:04:43;3.10;;;2.00;;
5458;SDS011;2752;49.992;8.422;2023-11-19T09:07:10;4.77;;;2.37;;
5458;SDS011;2752;49.992;8.422;2023-11-19T09:09:37;4.63;;;2.30;;
5458;SDS011;2752;49.992;8.422;2023-11-19T09:12:06;3.10;;;2.00;;
5458;SDS011;2752;49.992;8.422;2023-11-19T09:14:33;4.97;;;2.43;;
5458;SDS011;2752;49.992;8.422;2023-11-19T09:17:00;5.23;;;3.00;;
5458;SDS011;2752;49.992;8.422;2023-11-19T09:19:27;6.90;;;2.83;;
5458;SDS011;2752;49.992;8.422;2023-11-19T09:21:54;2.50;;;2.00;;
5458;SDS011;2752;49.992;8.422;2023-11-19T09:24:21;2.50;;;1.73;;
5458;SDS011;2752;49.992;8.422;2023-11-19T09:26:48;3.13;;;1.90;;
5458;SDS011;2752;49.992;8.422;2023-11-19T09:29:17;8.93;;;2.23;;
5458;SDS011;2752;49.992;8.422;2023-11-19T09:31:44;5.27;;;2.40;;
5458;SDS011;2752;49.992;8.422;2023-11-19T09:34:11;5.47;;;2.90;;
5458;SDS011;2752;49.992;8.422;2023-11-19T09:36:38;3.37;;;2.10;;
5458;SDS011;2752;49.992;8.422;2023-11-19T09:39:08;5.20;;;2.80;;
5458;SDS011;2752;49.992;8.422;2023-11-19T09:41:35;3.53;;;2.33;;
5458;SDS011;2752;49.992;8.422;2023-11-19T09:44:02;4.00;;;2.33;;
5458;SDS011;2752;49.992;8.422;2023-11-19T09:46:31;3.50;;;1.93;;
5458;SDS011;2752;49.992;8.422;2023-11-19T09:48:58;4.60;;;1.97;;
5458;SDS011;2752;49.992;8.422;2023-11-19T09:51:25;3.27;;;2.20;;
5458;SDS011;2752;49.992;8.422;2023-11-19T09:53:53;9.23;;;1.80;;
5458;SDS011;2752;49.992;8.422;2023-11-19T09:56:20;4.07;;;1.77;;
5458;SDS011;2752;49.992;8.422;2023-11-19T09:58:47;7.03;;;1.90;;
5458;SDS011;2752;49.992;8.422;2023-11-19T10:01:14;3.40;;;1.30;;
5458;SDS011;2752;49.992;8.422;2023-11-19T10:03:42;10.83;;;1.70;;
5458;SDS011;2752;49.992;8.422;2023-11-19T10:06:12;5.27;;;2.10;;
5458;SDS011;2752;49.992;8.422;2023-11-19T10:08:41;7.57;;;1.87;;
5458;SDS011;2752;49.992;8.422;2023-11-19T10:11:08;7.87;;;1.70;;
5458;SDS011;2752;49.992;8.422;2023-11-19T10:13:37;6.20;;;1.30;;
5458;SDS011;2752;49.992;8.422;2023-11-19T10:16:07;3.43;;;1.20;;
5458;SDS011;2752;49.992;8.422;2023-11-19T10:18:34;10.50;;;1.20;;
5458;SDS011;2752;49.992;8.422;2023-11-19T10:21:04;9.00;;;1.87;;
5458;SDS011;2752;49.992;8.422;2023-11-19T10:23:46;7.20;;;1.30;;
5458;SDS011;2752;49.992;8.422;2023-11-19T10:26:14;2.97;;;1.40;;
5458;SDS011;2752;49.992;8.422;2023-11-19T10:28:41;1.10;;;0.70;;
5458;SDS011;2752;49.992;8.422;2023-11-19T10:31:11;7.13;;;1.23;;
5458;SDS011;2752;49.992;8.422;2023-11-19T10:33:38;2.77;;;1.07;;
5458;SDS011;2752;49.992;8.422;2023-11-19T10:36:07;9.57;;;1.43;;
5458;SDS011;2752;49.992;8.422;2023-11-19T10:38:34;6.30;;;1.60;;
5458;SDS011;2752;49.992;8.422;2023-11-19T10:41:01;12.17;;;1.97;;
5458;SDS011;2752;49.992;8.422;2023-11-19T10:43:29;8.77;;;1.67;;
5458;SDS011;2752;49.992;8.422;2023-11-19T10:46:08;6.10;;;1.00;;
5458;SDS011;2752;49.992;8.422;2023-11-19T10:48:35;9.83;;;1.37;;
5458;SDS011;2752;49.992;8.422;2023-11-19T10:51:03;11.50;;;1.20;;
5458;SDS011;2752;49.992;8.422;2023-11-19T10:53:33;7.10;;;0.97;;
5458;SDS011;2752;49.992;8.422;2023-11-19T10:56:03;5.80;;;1.27;;
5458;SDS011;2752;49.992;8.422;2023-11-19T10:58:33;3.80;;;1.23;;
5458;SDS011;2752;49.992;8.422;2023-11-19T11:01:03;7.90;;;1.93;;
5458;SDS011;2752;49.992;8.422;2023-11-19T11:03:36;8.47;;;1.20;;
5458;SDS011;2752;49.992;8.422;2023-11-19T11:06:05;4.73;;;1.10;;
5458;SDS011;2752;49.992;8.422;2023-11-19T11:08:34;6.73;;;1.43;;
5458;SDS011;2752;49.992;8.422;2023-11-19T11:11:03;5.17;;;1.47;;
5458;SDS011;2752;49.992;8.422;2023-11-19T11:13:31;1.23;;;0.70;;
5458;SDS011;2752;49.992;8.422;2023-11-19T11:15:59;7.03;;;1.30;;
5458;SDS011;2752;49.992;8.422;2023-11-19T11:18:26;7.17;;;1.33;;
5458;SDS011;2752;49.992;8.422;2023-11-19T11:20:55;5.63;;;1.67;;
5458;SDS011;2752;49.992;8.422;2023-11-19T11:23:29;7.57;;;1.20;;
5458;SDS011;2752;49.992;8.422;2023-11-19T11:26:04;6.20;;;1.07;;
5458;SDS011;2752;49.992;8.422;2023-11-19T11:28:34;3.97;;;1.30;;
5458;SDS011;2752;49.992;8.422;2023-11-19T11:31:15;8.43;;;1.37;;
5458;SDS011;2752;49.992;8.422;2023-11-19T11:33:53;6.30;;;1.70;;
5458;SDS011;2752;49.992;8.422;2023-11-19T11:36:22;7.03;;;1.33;;
5458;SDS011;2752;49.992;8.422;2023-11-19T11:38:49;4.77;;;1.23;;
5458;SDS011;2752;49.992;8.422;2023-11-19T11:41:19;4.70;;;1.07;;
5458;SDS011;2752;49.992;8.422;2023-11-19T11:43:48;6.03;;;1.83;;
5458;SDS011;2752;49.992;8.422;2023-11-19T11:49:01;6.10;;;1.10;;
5458;SDS011;2752;49.992;8.422;2023-11-19T11:54:25;4.60;;;1.40;;
5458;SDS011;2752;49.992;8.422;2023-11-19T11:57:02;8.97;;;1.60;;
5458;SDS011;2752;49.992;8.422;2023-11-19T11:59:31;5.17;;;1.60;;
5458;SDS011;2752;49.992;8.422;2023-11-19T12:01:58;7.87;;;1.50;;
5458;SDS011;2752;49.992;8.422;2023-11-19T12:04:25;8.97;;;1.33;;
5458;SDS011;2752;49.992;8.422;2023-11-19T12:07:02;3.77;;;0.90;;
5458;SDS011;2752;49.992;8.422;2023-11-19T12:09:29;11.47;;;1.20;;
5458;SDS011;2752;49.992;8.422;2023-11-19T12:12:08;3.43;;;1.90;;
5458;SDS011;2752;49.992;8.422;2023-11-19T12:20:12;5.37;;;1.43;;
5458;SDS011;2752;49.992;8.422;2023-11-19T12:22:39;6.57;;;1.50;;
5458;SDS011;2752;49.992;8.422;2023-11-19T12:25:06;9.70;;;1.80;;
5458;SDS011;2752;49.992;8.422;2023-11-19T12:27:36;2.03;;;1.00;;
5458;SDS011;2752;49.992;8.422;2023-11-19T12:30:03;3.30;;;0.80;;
5458;SDS011;2752;49.992;8.422;2023-11-19T12:32:39;4.77;;;1.07;;
5458;SDS011;2752;49.992;8.422;2023-11-19T12:35:07;3.23;;;1.23;;
5458;SDS011;2752;49.992;8.422;2023-11-19T12:37:38;3.70;;;1.30;;
5458;SDS011;2752;49.992;8.422;2023-11-19T12:40:10;4.70;;;2.07;;
5458;SDS011;2752;49.992;8.422;2023-11-19T12:42:39;7.60;;;1.27;;
5458;SDS011;2752;49.992;8.422;2023-11-19T12:45:06;2.80;;;1.67;;
5458;SDS011;2752;49.992;8.422;2023-11-19T12:47:34;5.43;;;1.47;;
5458;SDS011;2752;49.992;8.422;2023-11-19T12:50:02;5.03;;;1.10;;
5458;SDS011;2752;49.992;8.422;2023-11-19T12:52:29;4.93;;;1.10;;
5458;SDS011;2752;49.992;8.422;2023-11-19T12:54:56;4.13;;;1.40;;
5458;SDS011;2752;49.992;8.422;2023-11-19T12:57:35;2.23;;;0.77;;
5458;SDS011;2752;49.992;8.422;2023-11-19T13:00:04;7.53;;;1.33;;
5458;SDS011;2752;49.992;8.422;2023-11-19T13:02:46;10.03;;;1.50;;
5458;SDS011;2752;49.992;8.422;2023-11-19T13:05:27;8.83;;;1.37;;
5458;SDS011;2752;49.992;8.422;2023-11-19T13:07:59;5.23;;;0.90;;
5458;SDS011;2752;49.992;8.422;2023-11-19T13:10:26;7.80;;;1.30;;
5458;SDS011;2752;49.992;8.422;2023-11-19T13:13:02;6.03;;;1.13;;
5458;SDS011;2752;49.992;8.422;2023-11-19T13:15:31;3.93;;;1.17;;
5458;SDS011;2752;49.992;8.422;2023-11-19T13:17:58;4.70;;;1.27;;
5458;SDS011;2752;49.992;8.422;2023-11-19T13:20:25;8.60;;;1.47;;
5458;SDS011;2752;49.992;8.422;2023-11-19T13:22:56;8.90;;;1.43;;
5458;SDS011;2752;49.992;8.422;2023-11-19T13:25:23;8.77;;;1.33;;
5458;SDS011;2752;49.992;8.422;2023-11-19T13:27:51;9.23;;;1.20;;
5458;SDS011;2752;49.992;8.422;2023-11-19T13:30:18;4.33;;;1.20;;
5458;SDS011;2752;49.992;8.422;2023-11-19T13:32:46;2.73;;;0.80;;
5458;SDS011;2752;49.992;8.422;2023-11-19T13:35:13;7.97;;;0.80;;
5458;SDS011;2752;49.992;8.422;2023-11-19T13:37:40;4.93;;;1.17;;
5458;SDS011;2752;49.992;8.422;2023-11-19T13:40:07;9.33;;;1.27;;
5458;SDS011;2752;49.992;8.422;2023-11-19T13:42:37;5.80;;;1.10;;
5458;SDS011;2752;49.992;8.422;2023-11-19T13:45:06;6.93;;;1.33;;
5458;SDS011;2752;49.992;8.422;2023-11-19T13:47:35;6.40;;;1.80;;
5458;SDS011;2752;49.992;8.422;2023-11-19T13:50:07;10.67;;;3.00;;
5458;SDS011;2752;49.992;8.422;2023-11-19T13:52:34;12.33;;;4.30;;
5458;SDS011;2752;49.992;8.422;2023-11-19T13:55:03;12.57;;;3.60;;
5458;SDS011;2752;49.992;8.422;2023-11-19T13:57:31;7.80;;;1.30;;
5458;SDS011;2752;49.992;8.422;2023-11-19T13:59:59;7.13;;;1.50;;
5458;SDS011;2752;49.992;8.422;2023-11-19T14:02:27;5.70;;;1.67;;
5458;SDS011;2752;49.992;8.422;2023-11-19T14:04:55;7.50;;;2.10;;
5458;SDS011;2752;49.992;8.422;2023-11-19T14:07:23;9.80;;;1.60;;
5458;SDS011;2752;49.992;8.422;2023-11-19T14:09:50;3.50;;;1.50;;
5458;SDS011;2752;49.992;8.422;2023-11-19T14:12:17;3.30;;;1.23;;
5458;SDS011;2752;49.992;8.422;2023-11-19T14:14:44;5.77;;;1.10;;
5458;SDS011;2752;49.992;8.422;2023-11-19T14:17:11;7.53;;;1.60;;
5458;SDS011;2752;49.992;8.422;2023-11-19T14:19:40;4.47;;;1.50;;
5458;SDS011;2752;49.992;8.422;2023-11-19T14:22:07;6.53;;;1.67;;
5458;SDS011;2752;49.992;8.422;2023-11-19T14:24:35;5.93;;;1.50;;
5458;SDS011;2752;49.992;8.422;2023-11-19T14:27:03;4.33;;;1.60;;
5458;SDS011;2752;49.992;8.422;2023-11-19T14:29:30;6.63;;;1.17;;
5458;SDS011;2752;49.992;8.422;2023-11-19T14:31:57;13.30;;;1.53;;
5458;SDS011;2752;49.992;8.422;2023-11-19T14:34:24;4.50;;;1.73;;
5458;SDS011;2752;49.992;8.422;2023-11-19T14:36:51;10.93;;;1.67;;
5458;SDS011;2752;49.992;8.422;2023-11-19T14:39:19;2.60;;;1.00;;
5458;SDS011;2752;49.992;8.422;2023-11-19T14:41:48;3.93;;;1.40;;
5458;SDS011;2752;49.992;8.422;2023-11-19T14:44:16;9.73;;;1.20;;
5458;SDS011;2752;49.992;8.422;2023-11-19T14:46:44;16.87;;;1.80;;
5458;SDS011;2752;49.992;8.422;2023-11-19T14:49:12;3.83;;;1.40;;
5458;SDS011;2752;49.992;8.422;2023-11-19T14:51:39;3.50;;;1.37;;
5458;SDS011;2752;49.992;8.422;2023-11-19T14:54:06;9.00;;;2.30;;
5458;SDS011;2752;49.992;8.422;2023-11-19T14:56:33;6.67;;;1.43;;
5458;SDS011;2752;49.992;8.422;2023-11-19T14:59:01;2.97;;;1.20;;
5458;SDS011;2752;49.992;8.422;2023-11-19T15:01:28;14.23;;;1.33;;
5458;SDS011;2752;49.992;8.422;2023-11-19T15:03:56;6.00;;;1.53;;
5458;SDS011;2752;49.992;8.422;2023-11-19T15:06:23;4.47;;;1.10;;
5458;SDS011;2752;49.992;8.422;2023-11-19T15:08:52;5.90;;;1.20;;
5458;SDS011;2752;49.992;8.422;2023-11-19T15:11:19;7.93;;;1.53;;
5458;SDS011;2752;49.992;8.422;2023-11-19T15:13:47;3.83;;;1.70;;
5458;SDS011;2752;49.992;8.422;2023-11-19T15:16:16;8.87;;;1.40;;
5458;SDS011;2752;49.992;8.422;2023-11-19T15:18:49;10.83;;;1.60;;
5458;SDS011;2752;49.992;8.422;2023-11-19T15:21:17;6.13;;;1.10;;
5458;SDS011;2752;49.992;8.422;2023-11-19T15:23:44;9.23;;;1.67;;
5458;SDS011;2752;49.992;8.422;2023-11-19T15:26:11;11.83;;;1.30;;
5458;SDS011;2752;49.992;8.422;2023-11-19T15:28:38;3.17;;;1.23;;
5458;SDS011;2752;49.992;8.422;2023-11-19T15:31:05;9.23;;;1.60;;
5458;SDS011;2752;49.992;8.422;2023-11-19T15:33:33;17.33;;;1.50;;
5458;SDS011;2752;49.992;8.422;2023-11-19T15:36:00;7.00;;;0.90;;